Impacts METAR Board
IDs:

KSAN - San Diego Intl Arpt, CA, US

Updated at: 0600 UTC 22 Oct 2018
Potential Impact None Slight Moderate High
Time 21/18Z 21/19Z 21/20Z 21/21Z 21/22Z 21/23Z 22/00Z 22/01Z 22/02Z 22/03Z 22/04Z 22/05Z 22/06Z
Temp69 71 73 75 74 72 70 68 67 66 65 65 64
Dewpt53 56 59 59 60 62 61 61 61 61 61 60 60
Altim29.96 29.95 29.93 29.91 29.89 29.89 29.89 29.89 29.90 29.91 29.92 29.92 29.93
VIS10 10 10 10 10 10 10 10 10 10 10 10 10
CIG-- -- -- -- -- -- -- -- -- -- -- -- --
CoverFEWFEWFEWFEWFEWFEWFEWFEWFEWFEWFEWFEWFEW
FltCatVFRVFRVFRVFRVFRVFRVFRVFRVFRVFRVFRVFRVFR
WX--------------------------
WDir02102103102903002802902903002903000
WSpd0 6 8 7 6 7 7 6 6 4 4 3 0
WGst-- -- -- -- -- -- -- -- -- -- -- -- --
Raw hourly METARs
KSAN 211751Z 00000KT 10SM FEW009 FEW070 21/12 A2996 RMK AO2 SLP144 T02060117 10206 20150 50003
KSAN 211851Z 21006KT 10SM FEW009 FEW070 22/13 A2995 RMK AO2 SLP140 T02170133
KSAN 211951Z 21008KT 10SM FEW009 FEW070 23/15 A2993 RMK AO2 SLP134 T02280150
KSAN 212051Z 31007KT 10SM FEW009 24/15 A2991 RMK AO2 SLP126 T02390150 58018
KSAN 212151Z 29006KT 10SM FEW009 23/16 A2989 RMK AO2 SLP123 T02330156
KSAN 212251Z 30007KT 10SM FEW009 22/17 A2989 RMK AO2 SLP122 T02220167
KSAN 212351Z 28007KT 10SM FEW009 21/16 A2989 RMK AO2 SLP121 T02110161 10239 20206 56005
KSAN 220051Z 29006KT 10SM FEW009 20/16 A2989 RMK AO2 SLP120 T02000161
KSAN 220151Z 29006KT 10SM FEW009 19/16 A2990 RMK AO2 SLP123 T01940161
KSAN 220251Z 30004KT 10SM FEW009 19/16 A2991 RMK AO2 SLP127 T01890161 53006
KSAN 220351Z 29004KT 10SM FEW010 18/16 A2992 RMK AO2 SLP130 T01830161
KSAN 220451Z 30003KT 10SM FEW011 18/16 A2992 RMK AO2 SLP131 T01830156
KSAN 220551Z 00000KT 10SM FEW011 18/16 A2993 RMK AO2 SLP133 T01780156 10211 20178 51006



Page loaded:  06:26 UTC  |   11:26 PM Pacific  |   12:26 AM Mountain  |   01:26 AM Central  |   02:26 AM Eastern

 

ADVISORIES

FORECASTS

FORECASTS

OBSERVATIONS

USER TOOLS

ABOUT US